Time;durP1;ratioP1;P1;durP2;ratioP2;P2;SDS_P1;SDS_P2;PMS_P1;PMS_P2;Temp;Humidity;BMP_temperature;BMP_pressure;BME280_temperature;BME280_humidity;BME280_pressure;Samples;Min_cycle;Max_cycle;Signal;HPM_P1;HPM_P2
2022/09/19 00:01:56;;;;;;;6.68;1.90;;;19.90;54.30;;;;;;5048747;28;20024;-55
2022/09/19 00:04:28;;;;;;;7.63;2.00;;;19.90;54.10;;;;;;5031744;28;20102;-55
2022/09/19 00:06:57;;;;;;;6.72;1.90;;;19.90;54.10;;;;;;5050059;28;20032;-55
2022/09/19 00:09:27;;;;;;;6.78;1.80;;;19.90;53.50;;;;;;5048057;28;20029;-55
2022/09/19 00:11:56;;;;;;;5.07;1.60;;;19.90;53.00;;;;;;5050056;28;20027;-55
2022/09/19 00:14:27;;;;;;;8.35;1.67;;;19.90;52.90;;;;;;5050424;28;20275;-55
2022/09/19 00:16:59;;;;;;;5.53;1.67;;;19.90;52.70;;;;;;5069552;28;20101;-55
2022/09/19 00:19:28;;;;;;;5.93;1.40;;;19.80;52.40;;;;;;5069718;28;20045;-54
2022/09/19 00:22:00;;;;;;;5.90;1.63;;;19.80;52.00;;;;;;5051695;28;20109;-55
2022/09/19 00:24:49;;;;;;;4.88;1.60;;;19.80;51.80;;;;;;5069171;28;20037;-54
2022/09/19 00:27:21;;;;;;;4.43;1.52;;;19.80;51.90;;;;;;5069633;28;20021;-55
2022/09/19 00:29:50;;;;;;;5.60;1.50;;;19.80;51.80;;;;;;5067300;28;20036;-55
2022/09/19 00:32:20;;;;;;;9.85;1.48;;;19.80;51.70;;;;;;5081679;28;20040;-55
2022/09/19 00:34:54;;;;;;;7.35;1.77;;;19.90;52.20;;;;;;5048217;28;20200;-55
2022/09/19 00:37:24;;;;;;;6.80;2.00;;;19.90;52.20;;;;;;5048157;28;20048;-55
2022/09/19 00:39:52;;;;;;;5.25;1.67;;;19.90;52.20;;;;;;5047416;28;20052;-55
2022/09/19 00:42:26;;;;;;;5.00;1.58;;;19.90;52.50;;;;;;5048238;28;20028;-55
2022/09/19 00:45:00;;;;;;;5.68;1.30;;;19.90;51.70;;;;;;5081337;28;20087;-55
2022/09/19 00:47:44;;;;;;;6.13;1.50;;;19.90;51.10;;;;;;5048218;28;20033;-54
2022/09/19 00:50:28;;;;;;;4.57;1.52;;;19.90;50.20;;;;;;5055477;28;20467;-55
2022/09/19 00:53:07;;;;;;;5.60;1.38;;;19.90;49.50;;;;;;5069011;28;20159;-55
2022/09/19 00:55:37;;;;;;;3.63;1.10;;;19.90;49.30;;;;;;5051622;28;20121;-55
2022/09/19 00:58:31;;;;;;;6.50;1.30;;;19.90;49.10;;;;;;5065602;28;20020;-55
2022/09/19 01:01:01;;;;;;;4.75;1.17;;;19.90;49.50;;;;;;5072091;28;20043;-55
2022/09/19 01:03:30;;;;;;;5.32;1.35;;;19.90;49.60;;;;;;5071594;28;20383;-55
2022/09/19 01:06:13;;;;;;;6.82;1.50;;;19.90;49.50;;;;;;5072049;28;20468;-55
2022/09/19 01:08:48;;;;;;;5.40;1.52;;;19.90;49.50;;;;;;5071351;28;20028;-55
2022/09/19 01:11:38;;;;;;;5.60;1.25;;;19.90;49.50;;;;;;5072241;28;20039;-55
2022/09/19 01:14:37;;;;;;;4.70;1.40;;;20.00;49.40;;;;;;5051406;28;20029;-55
2022/09/19 01:17:46;;;;;;;5.15;1.40;;;19.90;49.50;;;;;;5051768;28;20027;-55
2022/09/19 01:20:32;;;;;;;4.97;1.38;;;19.90;49.50;;;;;;5051336;28;20033;-55
2022/09/19 01:23:41;;;;;;;4.55;1.38;;;19.90;49.50;;;;;;5051713;28;20040;-55
2022/09/19 01:26:40;;;;;;;4.00;1.20;;;20.00;49.20;;;;;;5052165;28;20043;-55
2022/09/19 01:29:22;;;;;;;5.60;1.30;;;20.00;49.00;;;;;;5071244;28;20081;-55
2022/09/19 01:31:55;;;;;;;5.60;1.38;;;19.90;48.70;;;;;;5068084;28;20025;-55
2022/09/19 01:34:26;;;;;;;5.10;1.20;;;19.90;48.90;;;;;;5051193;28;20029;-55
2022/09/19 01:37:07;;;;;;;6.70;1.42;;;19.90;48.90;;;;;;5052794;28;21136;-55
2022/09/19 01:39:42;;;;;;;5.25;1.15;;;20.00;49.10;;;;;;5050691;28;20125;-54
2022/09/19 01:42:14;;;;;;;4.32;1.20;;;20.00;49.20;;;;;;5053290;28;20040;-54
2022/09/19 01:44:42;;;;;;;4.45;1.25;;;20.00;49.00;;;;;;5052149;28;20094;-57
2022/09/19 01:47:21;;;;;;;5.43;1.23;;;20.00;49.00;;;;;;5035243;28;20028;-55
2022/09/19 01:50:05;;;;;;;4.25;1.20;;;20.10;49.10;;;;;;5051161;28;20107;-55
2022/09/19 01:53:01;;;;;;;4.25;1.17;;;20.10;49.20;;;;;;5051533;28;20029;-55
2022/09/19 01:56:33;;;;;;;5.20;1.30;;;20.10;49.00;;;;;;5020824;28;20030;-55
2022/09/19 01:59:26;;;;;;;4.88;1.05;;;20.10;49.10;;;;;;4973979;28;20354;-55
2022/09/19 02:02:14;;;;;;;4.68;1.20;;;20.00;49.10;;;;;;5049599;28;20045;-54
2022/09/19 02:04:52;;;;;;;7.15;1.33;;;20.00;48.90;;;;;;5052363;28;20171;-55
2022/09/19 02:07:45;;;;;;;4.05;1.30;;;20.10;48.90;;;;;;5052495;28;20028;-55
2022/09/19 02:10:35;;;;;;;3.95;1.00;;;20.00;50.00;;;;;;5050049;28;20219;-55
2022/09/19 02:13:06;;;;;;;4.22;1.20;;;20.00;49.40;;;;;;5050656;28;20057;-54
2022/09/19 02:15:49;;;;;;;5.57;1.50;;;20.00;49.60;;;;;;5050662;28;20515;-55
2022/09/19 02:18:45;;;;;;;4.40;1.30;;;20.00;49.60;;;;;;5033937;28;20033;-55
2022/09/19 02:21:21;;;;;;;5.25;1.33;;;20.10;49.40;;;;;;5052899;28;20032;-55
2022/09/19 02:23:52;;;;;;;3.92;1.08;;;20.10;49.50;;;;;;5066560;28;20032;-55
2022/09/19 02:26:22;;;;;;;3.85;1.27;;;20.10;49.70;;;;;;5069821;28;20032;-54
2022/09/19 02:28:56;;;;;;;3.47;1.02;;;20.10;49.60;;;;;;5069714;28;20054;-54
2022/09/19 02:31:27;;;;;;;5.65;1.38;;;20.10;49.60;;;;;;5070396;28;20038;-54
2022/09/19 02:34:03;;;;;;;3.35;0.95;;;20.10;49.40;;;;;;5071480;28;20333;-55
2022/09/19 02:37:00;;;;;;;3.45;1.10;;;20.10;49.20;;;;;;5070307;28;20035;-55
2022/09/19 02:39:45;;;;;;;4.78;1.58;;;20.20;49.10;;;;;;5070747;28;20549;-55
2022/09/19 02:42:50;;;;;;;5.38;1.20;;;20.20;49.10;;;;;;5050123;28;20043;-54
2022/09/19 02:45:29;;;;;;;6.55;1.40;;;20.20;48.80;;;;;;5049388;28;20045;-56
2022/09/19 02:48:05;;;;;;;4.00;1.20;;;20.20;49.00;;;;;;5049955;28;20064;-54
2022/09/19 02:50:43;;;;;;;3.88;1.10;;;20.20;48.90;;;;;;5049769;28;20434;-54
2022/09/19 02:53:20;;;;;;;5.25;1.35;;;20.20;49.10;;;;;;5047536;28;20036;-55
2022/09/19 02:55:56;;;;;;;5.00;1.20;;;20.20;48.90;;;;;;5033050;28;20025;-55
2022/09/19 02:58:30;;;;;;;6.15;1.30;;;20.30;48.80;;;;;;5049093;28;20040;-55
2022/09/19 03:01:07;;;;;;;5.72;1.25;;;20.30;48.50;;;;;;5033474;28;20109;-55
2022/09/19 03:04:13;;;;;;;3.72;1.10;;;20.30;48.40;;;;;;5049926;28;20083;-54
2022/09/19 03:07:06;;;;;;;4.07;1.10;;;20.30;48.20;;;;;;5049759;28;20035;-55
2022/09/19 03:09:35;;;;;;;4.13;0.98;;;20.30;48.00;;;;;;5049513;28;20044;-54
2022/09/19 03:12:21;;;;;;;5.20;1.40;;;20.30;48.20;;;;;;5058177;28;20025;-54
2022/09/19 03:14:55;;;;;;;4.22;1.23;;;20.30;48.40;;;;;;5067934;28;20394;-55
2022/09/19 03:17:32;;;;;;;6.15;1.10;;;20.30;48.40;;;;;;5069461;28;20402;-55
2022/09/19 03:20:03;;;;;;;6.88;1.70;;;20.30;48.40;;;;;;5069302;28;20028;-55
2022/09/19 03:22:41;;;;;;;3.33;1.10;;;20.30;48.10;;;;;;5054522;28;20391;-55
2022/09/19 03:25:11;;;;;;;3.65;1.20;;;20.30;48.20;;;;;;5068948;28;20047;-55
2022/09/19 03:27:40;;;;;;;4.10;1.20;;;20.40;48.40;;;;;;5054720;28;20502;-55
2022/09/19 03:30:12;;;;;;;4.00;1.40;;;20.40;48.60;;;;;;5049013;28;20035;-55
2022/09/19 03:32:42;;;;;;;5.47;1.20;;;20.40;48.10;;;;;;5033250;28;20021;-57
2022/09/19 03:35:10;;;;;;;4.20;1.38;;;20.40;47.80;;;;;;5049434;28;20124;-55
2022/09/19 03:37:39;;;;;;;4.75;1.15;;;20.50;47.60;;;;;;5049503;28;20116;-55
2022/09/19 03:40:08;;;;;;;3.00;1.05;;;20.50;47.20;;;;;;5048657;28;20060;-55
2022/09/19 03:42:37;;;;;;;5.20;1.30;;;20.60;47.20;;;;;;5067956;28;20021;-55
2022/09/19 03:45:06;;;;;;;3.17;1.23;;;20.60;47.40;;;;;;5048222;28;20500;-55
2022/09/19 03:47:38;;;;;;;3.17;1.10;;;20.60;48.20;;;;;;5049232;28;20106;-55
2022/09/19 03:50:07;;;;;;;3.75;1.10;;;20.60;47.20;;;;;;5048459;28;20068;-55
2022/09/19 03:52:48;;;;;;;3.00;0.80;;;20.70;47.30;;;;;;5048756;28;20025;-54
2022/09/19 03:55:19;;;;;;;3.13;1.25;;;20.70;47.30;;;;;;5048245;28;20079;-55
2022/09/19 03:57:48;;;;;;;3.08;1.20;;;20.70;47.40;;;;;;5048566;28;20091;-54
2022/09/19 04:00:20;;;;;;;3.13;1.10;;;20.70;47.10;;;;;;5048236;28;20508;-55
2022/09/19 04:02:49;;;;;;;4.13;1.10;;;20.70;47.00;;;;;;5048639;28;20029;-55
2022/09/19 04:05:17;;;;;;;4.25;1.00;;;20.80;46.70;;;;;;5048267;28;20037;-55
2022/09/19 04:07:47;;;;;;;5.25;1.35;;;20.80;46.20;;;;;;5048573;28;20029;-55
2022/09/19 04:10:15;;;;;;;3.55;1.10;;;20.80;46.30;;;;;;5048404;28;20511;-53
2022/09/19 04:12:44;;;;;;;3.42;1.23;;;20.80;46.20;;;;;;5048480;28;20033;-55
2022/09/19 04:15:13;;;;;;;4.00;1.20;;;20.80;46.20;;;;;;5048128;28;20131;-56
2022/09/19 04:17:42;;;;;;;5.07;1.02;;;20.80;46.10;;;;;;5048420;28;20025;-54
2022/09/19 04:20:15;;;;;;;3.45;1.00;;;20.90;46.30;;;;;;5048438;28;20100;-54
2022/09/19 04:22:59;;;;;;;2.45;1.00;;;20.90;45.60;;;;;;5048729;28;20361;-54
2022/09/19 04:25:38;;;;;;;4.38;1.17;;;20.90;45.70;;;;;;5040010;28;20037;-54
2022/09/19 04:28:14;;;;;;;2.67;1.00;;;20.90;46.00;;;;;;5068536;28;20036;-55
2022/09/19 04:30:42;;;;;;;3.25;0.93;;;20.90;45.70;;;;;;5069805;28;20036;-58
2022/09/19 04:33:12;;;;;;;3.25;0.93;;;20.90;45.30;;;;;;5052125;28;20020;-54
2022/09/19 04:35:43;;;;;;;2.95;0.93;;;20.90;45.20;;;;;;5068664;28;20025;-54
2022/09/19 04:38:18;;;;;;;2.80;0.93;;;20.90;45.40;;;;;;5068391;28;20036;-56
2022/09/19 04:40:49;;;;;;;3.05;0.98;;;20.90;45.50;;;;;;5063281;28;20147;-54
2022/09/19 04:43:19;;;;;;;2.80;1.00;;;20.90;45.50;;;;;;5052799;28;20107;-55
2022/09/19 04:46:01;;;;;;;4.78;1.02;;;20.90;45.50;;;;;;5081568;28;20033;-54
2022/09/19 04:48:34;;;;;;;4.10;0.90;;;20.90;45.80;;;;;;5047905;28;20025;-54
2022/09/19 04:51:05;;;;;;;3.15;1.10;;;20.90;45.70;;;;;;5048092;28;20120;-54
2022/09/19 04:53:35;;;;;;;4.28;1.10;;;20.90;46.00;;;;;;5047348;28;20032;-54
2022/09/19 04:56:04;;;;;;;3.67;1.17;;;20.90;45.40;;;;;;5077089;28;20052;-54
2022/09/19 04:58:33;;;;;;;4.20;1.25;;;20.90;45.20;;;;;;5031121;28;20021;-54
2022/09/19 05:01:06;;;;;;;2.90;1.00;;;20.90;45.20;;;;;;5032428;28;20044;-54
2022/09/19 05:03:36;;;;;;;3.45;1.23;;;20.90;44.40;;;;;;5047963;28;20484;-54
2022/09/19 05:06:05;;;;;;;2.95;1.08;;;20.90;44.20;;;;;;5047817;28;20051;-54
2022/09/19 05:08:34;;;;;;;5.28;1.30;;;20.90;44.30;;;;;;5047192;28;20021;-55
2022/09/19 05:11:21;;;;;;;3.53;0.90;;;20.90;44.40;;;;;;5049464;28;20122;-54
2022/09/19 05:13:52;;;;;;;2.47;1.00;;;20.90;43.90;;;;;;5080961;28;20025;-55
2022/09/19 05:16:23;;;;;;;2.75;1.00;;;20.90;44.10;;;;;;5047766;28;20036;-55
2022/09/19 05:19:03;;;;;;;2.05;0.77;;;20.90;43.70;;;;;;5047563;28;20025;-54
2022/09/19 05:21:36;;;;;;;4.07;1.02;;;20.90;43.70;;;;;;5047981;28;20044;-54
2022/09/19 05:24:05;;;;;;;2.05;0.82;;;20.90;44.50;;;;;;5046988;28;20039;-55
2022/09/19 05:26:33;;;;;;;2.95;0.82;;;20.90;44.50;;;;;;5047696;28;20060;-55
2022/09/19 05:29:10;;;;;;;2.80;1.10;;;20.80;44.80;;;;;;5047692;28;20105;-56
2022/09/19 05:31:50;;;;;;;4.80;0.90;;;20.80;46.20;;;;;;5047891;28;20108;-56
2022/09/19 05:34:38;;;;;;;5.95;1.23;;;20.80;47.40;;;;;;5081421;28;20052;-54
2022/09/19 05:37:08;;;;;;;4.35;1.10;;;20.80;48.30;;;;;;5081928;28;20025;-54
2022/09/19 05:40:06;;;;;;;4.25;1.20;;;20.80;48.20;;;;;;5035971;28;20044;-55
2022/09/19 05:42:46;;;;;;;3.15;1.15;;;20.80;48.90;;;;;;5051263;28;20049;-55
2022/09/19 05:45:17;;;;;;;5.37;1.20;;;20.70;49.40;;;;;;5050702;28;20094;-55
2022/09/19 05:47:46;;;;;;;4.70;1.13;;;20.70;49.90;;;;;;5051243;28;20033;-55
2022/09/19 05:50:14;;;;;;;3.25;1.23;;;20.70;49.70;;;;;;5050979;28;20029;-55
2022/09/19 05:55:30;;;;;;;2.95;1.00;;;20.70;49.20;;;;;;5063075;28;20424;-55
2022/09/19 05:58:09;;;;;;;3.10;0.98;;;20.70;49.10;;;;;;5071893;28;20048;-55
2022/09/19 06:00:39;;;;;;;4.45;1.17;;;20.70;49.40;;;;;;5071124;28;20456;-55
2022/09/19 06:03:11;;;;;;;6.25;1.10;;;20.60;49.70;;;;;;5071273;28;20028;-56
2022/09/19 06:05:43;;;;;;;3.90;1.05;;;20.60;49.50;;;;;;5070974;28;20044;-55
2022/09/19 06:08:12;;;;;;;4.43;1.10;;;20.60;49.50;;;;;;5071426;28;20024;-55
2022/09/19 06:10:42;;;;;;;3.15;1.05;;;20.60;49.40;;;;;;5066930;28;20043;-55
2022/09/19 06:13:23;;;;;;;2.85;0.90;;;20.60;49.50;;;;;;5050945;28;20025;-56
2022/09/19 06:15:53;;;;;;;3.83;1.10;;;20.50;49.70;;;;;;5050956;28;20041;-55
2022/09/19 06:18:40;;;;;;;3.65;0.90;;;20.50;50.00;;;;;;5052109;28;20029;-55
2022/09/19 06:21:09;;;;;;;3.42;1.00;;;20.50;50.10;;;;;;5052938;28;20492;-55
2022/09/19 06:23:41;;;;;;;4.60;1.10;;;20.50;50.20;;;;;;5067539;28;20044;-55
2022/09/19 06:26:11;;;;;;;5.82;1.08;;;20.50;50.20;;;;;;5071030;28;20040;-57
2022/09/19 06:28:39;;;;;;;3.85;1.13;;;20.50;50.30;;;;;;5070754;28;20024;-55
2022/09/19 06:31:10;;;;;;;4.10;1.00;;;20.50;50.30;;;;;;5071203;28;20040;-55
2022/09/19 06:33:45;;;;;;;3.80;1.00;;;20.50;50.20;;;;;;5070524;28;20469;-55
2022/09/19 06:36:37;;;;;;;3.28;1.25;;;20.60;50.10;;;;;;5070722;28;20040;-54
2022/09/19 06:39:07;;;;;;;2.20;0.90;;;20.50;49.80;;;;;;5063335;28;20123;-56
2022/09/19 06:41:39;;;;;;;3.13;1.02;;;20.50;49.50;;;;;;5035336;28;20140;-55
2022/09/19 06:44:12;;;;;;;4.95;0.90;;;20.50;49.50;;;;;;5051727;28;20092;-56
2022/09/19 06:47:00;;;;;;;5.55;1.10;;;20.60;49.40;;;;;;5051578;28;20037;-56
2022/09/19 06:49:38;;;;;;;4.00;1.05;;;20.50;49.20;;;;;;5050380;28;20472;-56
2022/09/19 06:52:36;;;;;;;3.22;1.00;;;20.50;49.30;;;;;;5042744;28;20033;-56
2022/09/19 06:55:06;;;;;;;6.60;1.20;;;20.50;49.50;;;;;;5063966;28;20028;-55
2022/09/19 06:57:35;;;;;;;3.72;1.00;;;20.50;49.60;;;;;;5069807;28;20517;-56
2022/09/19 07:00:05;;;;;;;3.42;1.08;;;20.50;49.80;;;;;;5069276;28;20029;-56
2022/09/19 07:02:36;;;;;;;3.80;1.10;;;20.50;50.00;;;;;;5069887;28;20517;-56
2022/09/19 07:05:06;;;;;;;2.45;0.90;;;20.50;50.30;;;;;;5069412;28;20060;-56
2022/09/19 07:07:55;;;;;;;2.50;0.82;;;20.50;50.20;;;;;;5070023;28;20029;-56
2022/09/19 07:10:25;;;;;;;2.75;1.00;;;20.50;50.20;;;;;;5048904;28;20131;-56
2022/09/19 07:13:01;;;;;;;2.88;1.08;;;20.50;50.10;;;;;;5049696;28;20039;-55
2022/09/19 07:15:33;;;;;;;3.92;1.00;;;20.50;50.00;;;;;;5049143;28;20383;-54
2022/09/19 07:18:02;;;;;;;3.25;1.10;;;20.50;50.00;;;;;;5033099;28;20202;-56
2022/09/19 07:20:32;;;;;;;5.95;1.00;;;20.50;50.00;;;;;;5049289;28;20316;-55
2022/09/19 07:23:18;;;;;;;5.20;1.08;;;20.50;50.00;;;;;;5049325;28;20398;-55
2022/09/19 07:26:07;;;;;;;4.25;1.00;;;20.50;50.00;;;;;;5049406;28;20037;-55
2022/09/19 07:28:37;;;;;;;2.05;0.80;;;20.40;49.90;;;;;;5048812;28;20025;-55
2022/09/19 07:31:06;;;;;;;3.33;1.10;;;20.40;50.10;;;;;;5049202;28;20033;-55
2022/09/19 07:33:39;;;;;;;4.72;1.23;;;20.40;49.70;;;;;;5049383;28;20025;-56
2022/09/19 07:36:10;;;;;;;2.78;0.90;;;20.40;49.80;;;;;;5049786;28;20044;-56
2022/09/19 07:38:40;;;;;;;3.85;1.02;;;20.40;49.80;;;;;;5049523;28;20068;-55
2022/09/19 07:41:15;;;;;;;2.20;0.90;;;20.40;50.00;;;;;;5035415;28;20064;-55
2022/09/19 07:44:02;;;;;;;2.85;0.90;;;20.30;50.00;;;;;;5048287;28;20203;-55
2022/09/19 07:47:26;;;;;;;3.20;1.10;;;20.30;50.20;;;;;;5050840;28;20289;-55
2022/09/19 07:49:48;;;;;;;3.17;1.10;;;20.30;50.30;;;;;;5048388;28;20095;-56
2022/09/19 07:52:34;;;;;;;3.10;1.10;;;20.30;50.50;;;;;;5050594;28;20067;-55
2022/09/19 07:55:03;;;;;;;4.85;1.10;;;20.30;50.70;;;;;;5058819;28;20132;-55
2022/09/19 07:57:33;;;;;;;2.50;1.10;;;20.30;50.90;;;;;;5068211;28;20048;-55
2022/09/19 08:00:03;;;;;;;3.20;1.08;;;20.20;51.00;;;;;;5067659;28;20061;-54
2022/09/19 08:02:37;;;;;;;3.50;1.30;;;20.20;51.20;;;;;;5069082;28;20063;-55
2022/09/19 08:05:06;;;;;;;4.88;1.40;;;20.30;51.40;;;;;;5068176;28;20056;-56
2022/09/19 08:07:35;;;;;;;3.83;1.10;;;20.30;51.40;;;;;;5068210;28;20031;-54
2022/09/19 08:10:06;;;;;;;4.15;1.20;;;20.30;51.60;;;;;;5059871;28;20028;-55
2022/09/19 08:12:35;;;;;;;4.47;1.20;;;20.30;51.80;;;;;;5057824;28;20036;-53
2022/09/19 08:15:10;;;;;;;6.82;1.55;;;20.30;52.10;;;;;;5062008;28;20082;-58
2022/09/19 08:17:38;;;;;;;5.05;1.25;;;20.30;52.20;;;;;;5068358;28;20025;-61
2022/09/19 08:20:06;;;;;;;7.97;1.40;;;20.30;52.30;;;;;;5061650;28;20028;-57
2022/09/19 08:22:41;;;;;;;4.00;1.30;;;20.40;52.70;;;;;;5066106;28;20032;-57
2022/09/19 08:25:11;;;;;;;4.03;1.30;;;20.40;53.80;;;;;;5063067;28;20048;-53
2022/09/19 08:27:44;;;;;;;5.00;1.90;;;20.50;53.00;;;;;;5062303;28;20024;-53
2022/09/19 08:30:13;;;;;;;4.10;1.40;;;20.50;54.20;;;;;;5067048;28;20158;-52
2022/09/19 08:32:49;;;;;;;3.58;1.10;;;20.50;53.20;;;;;;5046890;28;20029;-53
2022/09/19 08:35:19;;;;;;;11.18;1.67;;;20.50;53.80;;;;;;5066543;28;20029;-61
2022/09/19 08:37:53;;;;;;;3.60;1.33;;;20.60;54.80;;;;;;5058414;28;20036;-61
2022/09/19 08:40:30;;;;;;;5.78;1.45;;;20.50;54.80;;;;;;5059840;28;20059;-61
2022/09/19 08:43:30;;;;;;;7.60;1.52;;;20.50;54.10;;;;;;5067479;28;20077;-57
2022/09/19 08:46:10;;;;;;;5.35;1.40;;;20.50;54.80;;;;;;5058292;28;20139;-59
2022/09/19 08:49:11;;;;;;;5.10;1.42;;;20.60;54.50;;;;;;5067739;28;20062;-56
2022/09/19 08:52:02;;;;;;;6.40;1.40;;;20.60;54.00;;;;;;5069653;28;20495;-56
2022/09/19 08:54:39;;;;;;;4.45;1.65;;;20.50;54.30;;;;;;5066191;28;20035;-57
2022/09/19 08:57:33;;;;;;;5.70;1.67;;;20.50;54.80;;;;;;5067341;28;20373;-57
2022/09/19 09:00:19;;;;;;;6.10;1.60;;;20.50;54.40;;;;;;5059358;28;20029;-57
2022/09/19 09:02:58;;;;;;;5.18;1.77;;;20.60;56.30;;;;;;5048222;28;20036;-57
2022/09/19 09:05:38;;;;;;;6.82;2.08;;;20.50;57.20;;;;;;5047988;28;20135;-58
2022/09/19 09:08:33;;;;;;;11.13;3.75;;;20.50;56.80;;;;;;5046863;28;20033;-58
2022/09/19 09:11:22;;;;;;;9.90;3.25;;;20.50;55.90;;;;;;5061452;28;20025;-56
2022/09/19 09:14:20;;;;;;;8.95;2.75;;;20.60;55.10;;;;;;5052382;28;20086;-53
2022/09/19 09:17:01;;;;;;;8.00;2.45;;;20.60;55.20;;;;;;5083982;28;20052;-55
2022/09/19 09:20:16;;;;;;;7.05;2.75;;;20.50;55.20;;;;;;5058440;28;20033;-54
2022/09/19 09:22:55;;;;;;;9.98;3.70;;;20.50;55.90;;;;;;5056375;28;20044;-54
2022/09/19 09:25:43;;;;;;;10.18;4.30;;;20.50;56.20;;;;;;5065271;28;20372;-52
2022/09/19 09:28:15;;;;;;;10.20;3.88;;;20.60;56.40;;;;;;5070344;28;20021;-51
2022/09/19 09:31:29;;;;;;;13.38;4.25;;;20.60;56.80;;;;;;5059632;28;20067;-52
2022/09/19 09:34:28;;;;;;;9.95;4.63;;;20.60;56.30;;;;;;5053098;28;20036;-51
2022/09/19 09:37:24;;;;;;;12.63;5.18;;;20.60;56.00;;;;;;5052500;28;20404;-51
2022/09/19 09:40:13;;;;;;;9.77;4.15;;;20.50;55.90;;;;;;5048741;28;20081;-52
2022/09/19 09:42:51;;;;;;;9.75;3.60;;;20.50;55.80;;;;;;5061697;28;20387;-51
2022/09/19 09:45:44;;;;;;;10.98;4.13;;;20.50;56.00;;;;;;5062469;28;20037;-51
2022/09/19 09:48:29;;;;;;;9.50;4.22;;;20.50;56.70;;;;;;5065441;28;20033;-51
2022/09/19 09:51:01;;;;;;;9.18;3.88;;;20.50;57.40;;;;;;5064882;28;20028;-52
2022/09/19 09:53:58;;;;;;;7.22;3.38;;;20.50;57.50;;;;;;5065586;28;20029;-51
2022/09/19 09:56:50;;;;;;;9.98;3.70;;;20.60;57.90;;;;;;5060389;28;20029;-51
2022/09/19 10:05:53;;;;;;;10.77;3.33;;;20.50;57.60;;;;;;5056288;28;20040;-51
2022/09/19 10:08:29;;;;;;;10.63;3.22;;;20.50;57.30;;;;;;5050835;28;20384;-51
2022/09/19 10:11:44;;;;;;;8.27;3.28;;;20.50;57.10;;;;;;5052447;28;20079;-52
2022/09/19 10:14:25;;;;;;;10.25;3.35;;;20.50;56.70;;;;;;5056406;28;20036;-52
2022/09/19 10:17:01;;;;;;;11.30;3.35;;;20.50;57.40;;;;;;5060824;28;20350;-51
2022/09/19 10:19:47;;;;;;;7.65;3.00;;;20.50;57.20;;;;;;5052025;28;20112;-52
2022/09/19 10:22:17;;;;;;;9.75;3.40;;;20.60;56.90;;;;;;5050444;28;20036;-51
2022/09/19 10:24:59;;;;;;;9.98;3.20;;;20.50;56.90;;;;;;5062492;28;20119;-51
2022/09/19 10:27:38;;;;;;;8.98;3.55;;;20.50;56.80;;;;;;5068729;28;20111;-51
2022/09/19 10:30:21;;;;;;;7.82;3.03;;;20.50;56.80;;;;;;5066384;28;20032;-51
2022/09/19 10:32:51;;;;;;;9.13;3.03;;;20.50;56.80;;;;;;5050235;28;20480;-51
2022/09/19 10:35:43;;;;;;;7.53;2.80;;;20.50;56.80;;;;;;5050822;28;20434;-51
2022/09/19 10:38:16;;;;;;;7.47;3.28;;;20.50;56.80;;;;;;5050545;28;20033;-52
2022/09/19 10:40:58;;;;;;;8.15;2.80;;;20.50;56.90;;;;;;5035897;28;20106;-51
2022/09/19 10:43:49;;;;;;;8.80;3.08;;;20.50;56.70;;;;;;5056246;28;20441;-50
2022/09/19 10:46:35;;;;;;;8.35;3.10;;;20.50;56.70;;;;;;5069167;28;20472;-51
2022/09/19 10:49:49;;;;;;;8.57;3.00;;;20.40;57.10;;;;;;5069970;28;20093;-54
2022/09/19 10:52:33;;;;;;;10.27;2.60;;;20.40;57.70;;;;;;5063824;28;20087;-51
2022/09/19 10:55:09;;;;;;;7.55;2.78;;;20.40;57.90;;;;;;5066766;28;20387;-52
2022/09/19 10:57:49;;;;;;;8.30;2.60;;;20.40;57.50;;;;;;5075354;28;20025;-52
2022/09/19 11:00:23;;;;;;;6.53;2.60;;;20.40;57.10;;;;;;5061945;28;20514;-53
2022/09/19 11:03:08;;;;;;;9.73;2.50;;;20.40;57.00;;;;;;5067969;28;20036;-53
2022/09/19 11:05:37;;;;;;;6.63;2.67;;;20.40;57.10;;;;;;5062491;28;20083;-52
2022/09/19 11:08:24;;;;;;;10.65;2.90;;;20.50;58.10;;;;;;5050112;28;20036;-52
2022/09/19 11:10:56;;;;;;;8.98;2.80;;;20.50;58.60;;;;;;5062150;28;20021;-52
2022/09/19 11:13:41;;;;;;;7.10;2.70;;;20.50;58.30;;;;;;5049314;28;20368;-51
2022/09/19 11:16:29;;;;;;;10.35;2.58;;;20.50;57.90;;;;;;5033798;28;20119;-53
2022/09/19 11:19:17;;;;;;;8.80;3.30;;;20.50;59.10;;;;;;5033607;28;20044;-51
2022/09/19 11:22:15;;;;;;;8.38;2.50;;;20.50;58.40;;;;;;5056913;28;20111;-52
2022/09/19 11:25:10;;;;;;;6.35;2.60;;;20.50;59.10;;;;;;5058385;28;20043;-52
2022/09/19 11:28:06;;;;;;;7.47;2.47;;;20.50;59.10;;;;;;5014681;28;20043;-52
2022/09/19 11:31:28;;;;;;;9.20;2.55;;;20.50;58.90;;;;;;5052093;28;20028;-52
2022/09/19 11:34:04;;;;;;;5.85;2.30;;;20.40;59.10;;;;;;5005888;28;20096;-50
2022/09/19 11:37:25;;;;;;;6.72;2.60;;;20.40;59.20;;;;;;5067612;28;20039;-52
2022/09/19 11:40:07;;;;;;;6.47;2.53;;;20.40;59.50;;;;;;5068142;28;20051;-53
2022/09/19 11:42:47;;;;;;;8.52;2.90;;;20.40;59.40;;;;;;5068986;28;20058;-53
2022/09/19 11:45:20;;;;;;;7.35;2.60;;;20.40;59.70;;;;;;5048280;28;20094;-53
2022/09/19 11:48:31;;;;;;;8.90;2.80;;;20.40;59.60;;;;;;5053296;28;20028;-50
2022/09/19 11:51:08;;;;;;;6.32;2.35;;;20.40;59.30;;;;;;5081438;28;20016;-51
2022/09/19 11:54:14;;;;;;;8.27;2.90;;;20.40;59.40;;;;;;5075685;28;20025;-51
2022/09/19 11:57:19;;;;;;;7.35;2.40;;;20.40;59.50;;;;;;5076048;28;20031;-52
2022/09/19 12:00:12;;;;;;;7.05;2.80;;;20.40;59.50;;;;;;5074157;28;20115;-51
2022/09/19 12:03:03;;;;;;;9.63;3.15;;;20.40;59.50;;;;;;5075917;28;20077;-51
2022/09/19 12:05:52;;;;;;;9.45;2.70;;;20.40;59.60;;;;;;5072124;28;20124;-52
2022/09/19 12:08:31;;;;;;;9.65;2.53;;;20.40;59.60;;;;;;5048318;28;20025;-51
2022/09/19 12:11:08;;;;;;;7.57;2.50;;;20.40;59.70;;;;;;5048266;28;20029;-53
2022/09/19 12:14:09;;;;;;;7.93;2.65;;;20.40;59.60;;;;;;5057083;28;20071;-50
2022/09/19 12:16:58;;;;;;;5.38;2.10;;;20.40;59.20;;;;;;5065637;28;20116;-51
2022/09/19 12:19:47;;;;;;;6.43;1.98;;;20.40;58.70;;;;;;5067600;28;20111;-51
2022/09/19 12:22:18;;;;;;;5.28;1.88;;;20.40;57.30;;;;;;5065050;28;20025;-51
2022/09/19 12:25:01;;;;;;;5.00;1.83;;;20.30;56.60;;;;;;5030839;28;20486;-51
2022/09/19 12:27:37;;;;;;;5.57;2.00;;;20.30;55.90;;;;;;5031498;28;20040;-52
2022/09/19 12:30:17;;;;;;;5.13;1.60;;;20.30;56.30;;;;;;5049272;28;20036;-51
2022/09/19 12:33:05;;;;;;;4.35;1.90;;;20.30;56.10;;;;;;5058370;28;20025;-51
2022/09/19 12:35:36;;;;;;;4.95;1.50;;;20.30;55.20;;;;;;5063485;28;20479;-52
2022/09/19 12:38:35;;;;;;;4.13;1.52;;;20.30;54.80;;;;;;5064807;28;20119;-51
2022/09/19 12:41:19;;;;;;;5.87;1.67;;;20.30;54.30;;;;;;5068022;28;20384;-51
2022/09/19 12:44:22;;;;;;;5.47;1.52;;;20.20;53.30;;;;;;5063196;28;20036;-51
2022/09/19 12:47:13;;;;;;;4.18;1.70;;;20.20;54.00;;;;;;5074484;28;20068;-54
2022/09/19 12:50:32;;;;;;;5.07;1.83;;;20.20;55.40;;;;;;5061273;28;20123;-51
2022/09/19 12:53:37;;;;;;;4.45;1.88;;;20.30;55.80;;;;;;5082935;28;20067;-52
2022/09/19 12:56:39;;;;;;;5.72;1.70;;;20.30;55.70;;;;;;5058721;28;20025;-52
2022/09/19 12:59:22;;;;;;;8.57;1.88;;;20.30;55.70;;;;;;5063855;28;20140;-52
2022/09/19 13:01:56;;;;;;;5.72;1.83;;;20.30;55.50;;;;;;5070268;28;20039;-52
2022/09/19 13:05:11;;;;;;;4.65;1.73;;;20.30;55.00;;;;;;5072004;28;20306;-52
2022/09/19 13:07:47;;;;;;;6.55;1.98;;;20.30;54.70;;;;;;5004966;28;20045;-53
2022/09/19 13:10:19;;;;;;;3.92;1.50;;;20.30;54.90;;;;;;5060757;28;20024;-54
2022/09/19 13:12:57;;;;;;;5.55;1.67;;;20.30;54.90;;;;;;5058049;28;20028;-52
2022/09/19 13:15:46;;;;;;;5.47;1.50;;;20.30;55.00;;;;;;5060087;28;20028;-52
2022/09/19 13:23:57;;;;;;;5.03;1.60;;;20.30;54.20;;;;;;5095414;28;20020;-52
2022/09/19 13:26:35;;;;;;;5.18;1.65;;;20.30;53.90;;;;;;5096407;28;20028;-52
2022/09/19 13:29:29;;;;;;;4.97;1.45;;;20.30;53.80;;;;;;5094288;28;20042;-54
2022/09/19 13:32:04;;;;;;;6.43;1.50;;;20.30;53.80;;;;;;5093957;28;20085;-52
2022/09/19 13:35:05;;;;;;;4.88;1.63;;;20.30;53.40;;;;;;5058093;28;20020;-51
2022/09/19 13:37:34;;;;;;;3.65;1.20;;;20.30;53.10;;;;;;5017831;28;20140;-51
2022/09/19 13:40:33;;;;;;;4.00;1.40;;;20.30;53.10;;;;;;5056075;28;20056;-51
2022/09/19 13:43:26;;;;;;;3.13;1.20;;;20.30;51.70;;;;;;5055464;28;20033;-52
2022/09/19 13:46:10;;;;;;;4.40;1.23;;;20.30;51.50;;;;;;5068541;28;20040;-52
2022/09/19 13:49:13;;;;;;;7.13;2.28;;;20.30;52.10;;;;;;5066573;28;20027;-51
2022/09/19 13:51:54;;;;;;;3.55;1.58;;;20.20;51.00;;;;;;5045326;28;20047;-52
2022/09/19 13:54:26;;;;;;;6.30;1.20;;;20.20;52.10;;;;;;5072952;28;20067;-52
2022/09/19 13:57:03;;;;;;;3.90;1.33;;;20.20;52.30;;;;;;5060125;28;20121;-52
2022/09/19 14:00:03;;;;;;;3.85;1.38;;;20.20;51.90;;;;;;5051170;28;20420;-51
2022/09/19 14:02:43;;;;;;;4.95;1.17;;;20.20;51.60;;;;;;5047339;28;20029;-51
2022/09/19 14:05:19;;;;;;;3.60;1.02;;;20.20;51.30;;;;;;5064733;28;20055;-52
2022/09/19 14:07:54;;;;;;;3.35;1.25;;;20.10;51.80;;;;;;5068465;28;20112;-53